createdAt,value
2023-04-21T00:02:25.934Z,16.53
2023-04-21T00:07:14.728Z,16.97
2023-04-21T00:12:00.131Z,18.27
2023-04-21T00:16:52.542Z,17.87
2023-04-21T00:21:37.747Z,18.73
2023-04-21T00:26:24.480Z,18.63
2023-04-21T00:31:11.921Z,18.90
2023-04-21T00:36:01.090Z,17.97
2023-04-21T00:41:04.166Z,17.73
2023-04-21T00:45:51.791Z,17.70
2023-04-21T00:50:42.941Z,15.97
2023-04-21T00:55:29.884Z,16.43
2023-04-21T01:00:18.611Z,19.27
2023-04-21T01:05:07.107Z,18.43
2023-04-21T01:09:52.408Z,18.20
2023-04-21T01:14:42.376Z,18.83
2023-04-21T01:19:34.327Z,18.27
2023-04-21T01:24:19.256Z,17.33
2023-04-21T01:29:04.750Z,16.67
2023-04-21T01:33:51.404Z,17.33
2023-04-21T01:38:47.155Z,15.57
2023-04-21T01:43:32.265Z,16.00
2023-04-21T01:48:17.696Z,15.53
2023-04-21T01:53:07.253Z,14.70
2023-04-21T01:57:53.474Z,15.43
2023-04-21T02:02:42.097Z,16.77
2023-04-21T02:07:28.961Z,14.93
2023-04-21T02:12:18.774Z,15.17
2023-04-21T02:17:06.027Z,14.97
2023-04-21T02:21:53.269Z,16.30
2023-04-21T02:26:44.488Z,15.37
2023-04-21T02:31:29.813Z,15.63
2023-04-21T02:36:16.037Z,14.57
2023-04-21T02:41:08.364Z,15.30
2023-04-21T02:45:54.009Z,13.23
2023-04-21T02:50:44.124Z,13.73
2023-04-21T02:55:27.820Z,13.33
2023-04-21T03:00:20.975Z,13.00
2023-04-21T03:05:07.477Z,13.00
2023-04-21T03:09:52.685Z,12.00
2023-04-21T03:14:42.738Z,12.63
2023-04-21T03:19:45.576Z,12.00
2023-04-21T03:24:35.218Z,12.17
2023-04-21T03:29:21.235Z,11.80
2023-04-21T03:34:06.238Z,12.30
2023-04-21T03:39:18.715Z,12.53
2023-04-21T03:44:03.105Z,12.50
2023-04-21T03:48:49.986Z,14.20
2023-04-21T03:53:40.121Z,14.47
2023-04-21T03:58:28.811Z,14.13
2023-04-21T04:03:12.892Z,12.43
2023-04-21T04:07:59.175Z,12.77
2023-04-21T04:12:55.332Z,12.83
2023-04-21T04:17:41.606Z,12.33
2023-04-21T04:22:25.212Z,11.57
2023-04-21T04:27:16.689Z,11.70
2023-04-21T04:32:04.273Z,11.77
2023-04-21T04:36:50.268Z,11.67
2023-04-21T04:41:37.288Z,13.53
2023-04-21T04:46:28.533Z,14.07
2023-04-21T04:51:13.925Z,14.80
2023-04-21T04:56:02.573Z,14.43
2023-04-21T05:00:49.971Z,14.30
2023-04-21T05:05:38.724Z,13.93
2023-04-21T05:10:25.641Z,12.70
2023-04-21T05:15:13.874Z,13.13
2023-04-21T05:20:01.116Z,12.10
2023-04-21T05:24:49.197Z,12.23
2023-04-21T05:29:38.033Z,13.33
2023-04-21T05:34:32.321Z,11.80
2023-04-21T05:39:16.550Z,11.87
2023-04-21T05:44:03.058Z,10.77
2023-04-21T05:49:12.442Z,11.40
2023-04-21T05:54:07.409Z,10.33
2023-04-21T05:58:56.493Z,11.50
2023-04-21T06:03:50.542Z,10.33
2023-04-21T06:09:06.583Z,11.40
2023-04-21T06:14:29.362Z,10.60
2023-04-21T06:19:13.135Z,9.13
2023-04-21T06:24:02.416Z,8.83
2023-04-21T06:28:49.006Z,8.07
2023-04-21T06:33:42.319Z,7.47
2023-04-21T06:38:25.929Z,7.23
2023-04-21T06:43:13.412Z,7.27
2023-04-21T06:48:03.948Z,7.50
2023-04-21T06:52:52.820Z,6.43
2023-04-21T06:57:37.562Z,7.70
2023-04-21T07:02:44.436Z,6.40
2023-04-21T07:07:46.167Z,5.57
2023-04-21T07:12:37.214Z,4.30
2023-04-21T07:17:55.821Z,5.43
2023-04-21T07:29:07.068Z,4.60
2023-04-21T07:34:22.559Z,4.27
2023-04-21T07:39:26.802Z,4.70
2023-04-21T07:44:20.229Z,4.10
2023-04-21T07:49:09.605Z,5.50
2023-04-21T07:53:53.189Z,5.20
2023-04-21T07:58:59.917Z,4.60
2023-04-21T08:03:45.538Z,4.17
2023-04-21T08:08:34.091Z,4.40
2023-04-21T08:13:41.440Z,4.20
2023-04-21T08:18:27.137Z,4.40
2023-04-21T08:28:49.408Z,3.90
2023-04-21T08:33:57.929Z,4.17
2023-04-21T08:38:46.494Z,3.43
2023-04-21T08:43:39.242Z,3.50
2023-04-21T08:48:24.461Z,4.40
2023-04-21T08:58:15.207Z,4.20
2023-04-21T09:03:19.323Z,3.30
2023-04-21T09:08:25.602Z,3.13
2023-04-21T09:13:16.658Z,3.20
2023-04-21T09:18:14.008Z,3.07
2023-04-21T09:23:35.075Z,3.20
2023-04-21T09:28:23.732Z,2.57
2023-04-21T09:33:27.848Z,2.90
2023-04-21T09:38:16.398Z,2.37
2023-04-21T09:43:17.136Z,2.53
2023-04-21T09:48:41.221Z,2.60
2023-04-21T09:53:46.953Z,2.27
2023-04-21T09:58:53.244Z,2.30
2023-04-21T10:03:41.407Z,2.57
2023-04-21T10:08:25.720Z,2.20
2023-04-21T10:13:15.979Z,2.67
2023-04-21T10:18:30.944Z,2.50
2023-04-21T10:23:38.149Z,2.63
2023-04-21T10:28:44.179Z,2.43
2023-04-21T10:33:41.279Z,2.10
2023-04-21T10:38:37.572Z,2.20
2023-04-21T10:43:49.507Z,2.53
2023-04-21T10:48:40.160Z,2.33
2023-04-21T10:53:28.615Z,2.63
2023-04-21T10:58:17.703Z,2.10
2023-04-21T11:03:05.975Z,2.00
2023-04-21T11:08:11.452Z,2.13
2023-04-21T11:13:13.131Z,2.30
2023-04-21T11:17:59.913Z,3.40
2023-04-21T11:22:47.022Z,2.65
2023-04-21T11:27:37.483Z,2.08
2023-04-21T11:32:29.615Z,2.03
2023-04-21T11:37:55.938Z,3.05
2023-04-21T11:43:16.234Z,2.47
2023-04-21T11:48:41.495Z,3.05
2023-04-21T11:53:33.106Z,2.33
2023-04-21T11:58:36.660Z,2.53
2023-04-21T12:03:24.002Z,2.20
2023-04-21T12:08:08.412Z,2.67
2023-04-21T12:12:59.939Z,2.40
2023-04-21T12:17:48.067Z,2.25
2023-04-21T12:22:34.899Z,2.70
2023-04-21T12:27:22.381Z,2.55
2023-04-21T12:32:07.262Z,2.40
2023-04-21T12:37:30.922Z,2.28
2023-04-21T12:42:14.771Z,2.20
2023-04-21T12:47:15.332Z,2.53
2023-04-21T12:52:04.181Z,2.35
2023-04-21T12:57:09.384Z,2.47
2023-04-21T13:01:59.252Z,2.25
2023-04-21T13:06:46.847Z,2.00
2023-04-21T13:17:46.660Z,2.27
2023-04-21T13:22:44.684Z,2.15
2023-04-21T13:27:50.709Z,2.30
2023-04-21T13:32:43.070Z,2.10
2023-04-21T13:37:43.897Z,2.38
2023-04-21T13:42:31.067Z,2.43
2023-04-21T13:47:41.079Z,1.70
2023-04-21T13:52:27.814Z,1.87
2023-04-21T13:57:13.756Z,1.80
2023-04-21T14:02:03.843Z,2.22
2023-04-21T14:07:50.758Z,2.30
2023-04-21T14:12:45.115Z,2.70
2023-04-21T14:17:29.009Z,2.15
2023-04-21T14:22:31.582Z,1.98
2023-04-21T14:27:20.078Z,2.35
2023-04-21T14:32:10.669Z,2.60
2023-04-21T14:36:55.020Z,2.00
2023-04-21T14:41:48.195Z,1.80
2023-04-21T14:46:31.936Z,2.65
2023-04-21T14:51:40.170Z,2.33
2023-04-21T14:56:23.993Z,1.88
2023-04-21T15:01:14.618Z,2.30
2023-04-21T15:05:59.169Z,2.22
2023-04-21T15:11:03.807Z,1.80
2023-04-21T15:16:07.390Z,2.05
2023-04-21T15:21:28.211Z,2.50
2023-04-21T15:26:17.148Z,2.00
2023-04-21T15:31:06.736Z,2.28
2023-04-21T15:35:53.999Z,7.97
2023-04-21T15:40:53.199Z,2.20
2023-04-21T15:45:45.457Z,2.53
2023-04-21T15:50:33.236Z,3.38
2023-04-21T15:55:53.181Z,2.60
2023-04-21T16:00:40.289Z,3.40
2023-04-21T16:05:32.572Z,2.87
2023-04-21T16:10:16.495Z,4.53
2023-04-21T16:15:15.919Z,4.90
2023-04-21T16:20:08.341Z,5.03
2023-04-21T16:25:01.113Z,5.50
2023-04-21T16:29:47.114Z,4.83
2023-04-21T16:34:33.195Z,5.17
2023-04-21T16:39:19.622Z,5.27
2023-04-21T16:44:10.587Z,5.43
2023-04-21T16:48:59.186Z,5.33
2023-04-21T16:53:43.961Z,4.77
2023-04-21T16:58:31.546Z,6.10
2023-04-21T17:03:51.551Z,5.70
2023-04-21T17:09:07.124Z,5.93
2023-04-21T17:13:58.460Z,7.83
2023-04-21T17:19:15.713Z,6.00
2023-04-21T17:24:06.693Z,6.10
2023-04-21T17:28:59.637Z,11.27
2023-04-21T17:33:49.886Z,6.57
2023-04-21T17:38:51.945Z,5.60
2023-04-21T17:43:40.552Z,5.40
2023-04-21T17:48:27.582Z,6.83
2023-04-21T17:53:29.418Z,7.07
2023-04-21T17:58:16.208Z,15.97
2023-04-21T18:03:07.024Z,7.80
2023-04-21T18:07:52.596Z,7.93
2023-04-21T18:12:38.629Z,7.27
2023-04-21T18:17:28.393Z,7.03
2023-04-21T18:22:13.788Z,11.37
2023-04-21T18:27:21.393Z,24.93
2023-04-21T18:32:08.734Z,10.87
2023-04-21T18:37:00.913Z,28.27
2023-04-21T18:41:48.505Z,11.80
2023-04-21T18:46:33.639Z,12.13
2023-04-21T18:51:19.063Z,15.43
2023-04-21T18:56:09.107Z,27.97
2023-04-21T19:00:56.225Z,6.63
2023-04-21T19:05:44.546Z,6.57
2023-04-21T19:10:35.511Z,11.90
2023-04-21T19:15:19.036Z,8.43
2023-04-21T19:20:12.940Z,25.47
2023-04-21T19:24:58.207Z,20.37
2023-04-21T19:29:44.903Z,7.30
2023-04-21T19:34:30.249Z,8.40
2023-04-21T19:39:22.889Z,6.80
2023-04-21T19:44:07.730Z,12.27
2023-04-21T19:48:54.462Z,7.57
2023-04-21T19:53:51.407Z,7.07
2023-04-21T19:59:18.785Z,6.90
2023-04-21T20:04:22.232Z,6.90
2023-04-21T20:09:10.480Z,6.37
2023-04-21T20:14:03.297Z,6.07
2023-04-21T20:18:47.096Z,6.97
2023-04-21T20:23:39.301Z,6.00
2023-04-21T20:33:42.875Z,6.13
2023-04-21T20:38:34.684Z,6.20
2023-04-21T20:43:21.499Z,7.17
2023-04-21T20:48:08.252Z,7.23
2023-04-21T20:52:54.873Z,6.03
2023-04-21T20:57:46.646Z,6.83
2023-04-21T21:02:36.640Z,6.13
2023-04-21T21:07:21.046Z,5.37
2023-04-21T21:12:36.803Z,5.93
2023-04-21T21:17:42.496Z,5.47
2023-04-21T21:22:50.852Z,5.87
2023-04-21T21:27:34.324Z,5.60
2023-04-21T21:32:24.459Z,5.27
2023-04-21T21:37:13.093Z,5.83
2023-04-21T21:42:00.357Z,5.27
2023-04-21T21:46:46.993Z,5.80
2023-04-21T21:51:36.925Z,5.53
2023-04-21T21:56:25.960Z,5.40
2023-04-21T22:01:27.460Z,5.97
2023-04-21T22:06:17.381Z,6.20
2023-04-21T22:11:08.306Z,6.13
2023-04-21T22:15:52.013Z,5.70
2023-04-21T22:20:41.039Z,5.90
2023-04-21T22:25:27.999Z,5.73
2023-04-21T22:30:18.259Z,6.13
2023-04-21T22:35:05.245Z,6.10
2023-04-21T22:40:08.279Z,5.30
2023-04-21T22:44:58.045Z,5.60
2023-04-21T22:49:41.654Z,6.37
2023-04-21T22:54:34.169Z,5.80
2023-04-21T22:59:22.461Z,6.03
2023-04-21T23:04:09.011Z,6.03
2023-04-21T23:08:55.790Z,6.07
2023-04-21T23:13:42.059Z,6.30
2023-04-21T23:18:34.523Z,6.10
2023-04-21T23:23:21.109Z,6.17
2023-04-21T23:28:06.969Z,6.20
2023-04-21T23:32:56.247Z,6.07
2023-04-21T23:37:43.885Z,6.23
2023-04-21T23:42:33.255Z,6.97
2023-04-21T23:47:19.824Z,6.53
2023-04-21T23:52:06.871Z,6.83
2023-04-21T23:56:59.536Z,6.40
